Manzanola, Colorado
Current Conditions -  °F | °C
As of 11:53 AM on Saturday 20 Dec 2014 (Local Time) from KLHX Reporting Station
Clear Clear  
Wind Chill: 37°   Ceiling: Unl
Heat Index: 37°   Visibility: 10mi
Dew Point: 26°   Wind: 0mph
Humidity: 65%   Direction: NA
Pressure: 30"   Gusts: NA
Location:  38.11°N, 103.87°W
Report Text: KLHX 201853Z AUTO 00000KT 10SM CLR 03/M03 A3000 RMK AO2 SLP169 T00281033
Loading
Personal Weather Stations






























Interactive Weather Map New forecast layout! Learn more

10-Day Weather Forecast

Advertisements
Track Severe Weather on mobile